sensor_id;sensor_type;location;lat;lon;timestamp;P1;durP1;ratioP1;P2;durP2;ratioP2
18176;SDS011;9213;50.858;3.964;2022-07-06T00:02:18;5.50;;;3.87;;
18176;SDS011;9213;50.858;3.964;2022-07-06T00:04:45;5.77;;;3.87;;
18176;SDS011;9213;50.858;3.964;2022-07-06T00:07:13;7.47;;;4.03;;
18176;SDS011;9213;50.858;3.964;2022-07-06T00:09:40;5.10;;;4.00;;
18176;SDS011;9213;50.858;3.964;2022-07-06T00:12:07;6.27;;;3.60;;
18176;SDS011;9213;50.858;3.964;2022-07-06T00:14:35;5.27;;;4.07;;
18176;SDS011;9213;50.858;3.964;2022-07-06T00:17:02;8.10;;;4.13;;
18176;SDS011;9213;50.858;3.964;2022-07-06T00:19:29;6.67;;;4.27;;
18176;SDS011;9213;50.858;3.964;2022-07-06T00:21:56;8.67;;;5.13;;
18176;SDS011;9213;50.858;3.964;2022-07-06T00:24:24;8.00;;;4.37;;
18176;SDS011;9213;50.858;3.964;2022-07-06T00:26:51;8.43;;;4.80;;
18176;SDS011;9213;50.858;3.964;2022-07-06T00:29:18;7.77;;;4.70;;
18176;SDS011;9213;50.858;3.964;2022-07-06T00:31:45;4.77;;;4.33;;
18176;SDS011;9213;50.858;3.964;2022-07-06T00:34:12;6.30;;;4.80;;
18176;SDS011;9213;50.858;3.964;2022-07-06T00:36:39;5.43;;;4.83;;
18176;SDS011;9213;50.858;3.964;2022-07-06T00:39:05;7.83;;;4.50;;
18176;SDS011;9213;50.858;3.964;2022-07-06T00:41:34;8.47;;;5.17;;
18176;SDS011;9213;50.858;3.964;2022-07-06T00:44:06;6.10;;;4.90;;
18176;SDS011;9213;50.858;3.964;2022-07-06T00:46:34;5.43;;;4.47;;
18176;SDS011;9213;50.858;3.964;2022-07-06T00:49:01;10.60;;;5.00;;
18176;SDS011;9213;50.858;3.964;2022-07-06T00:51:29;5.87;;;4.50;;
18176;SDS011;9213;50.858;3.964;2022-07-06T00:53:57;7.70;;;4.40;;
18176;SDS011;9213;50.858;3.964;2022-07-06T00:56:25;5.33;;;4.20;;
18176;SDS011;9213;50.858;3.964;2022-07-06T00:58:56;7.37;;;5.40;;
18176;SDS011;9213;50.858;3.964;2022-07-06T01:01:23;5.03;;;4.63;;
18176;SDS011;9213;50.858;3.964;2022-07-06T01:03:50;7.13;;;5.03;;
18176;SDS011;9213;50.858;3.964;2022-07-06T01:06:17;8.37;;;4.93;;
18176;SDS011;9213;50.858;3.964;2022-07-06T01:08:44;9.27;;;5.10;;
18176;SDS011;9213;50.858;3.964;2022-07-06T01:11:12;5.80;;;4.90;;
18176;SDS011;9213;50.858;3.964;2022-07-06T01:13:39;8.90;;;5.33;;
18176;SDS011;9213;50.858;3.964;2022-07-06T01:16:08;7.43;;;5.73;;
18176;SDS011;9213;50.858;3.964;2022-07-06T01:18:35;7.13;;;5.30;;
18176;SDS011;9213;50.858;3.964;2022-07-06T01:21:08;5.67;;;5.00;;
18176;SDS011;9213;50.858;3.964;2022-07-06T01:23:40;7.10;;;5.23;;
18176;SDS011;9213;50.858;3.964;2022-07-06T01:26:11;5.27;;;4.73;;
18176;SDS011;9213;50.858;3.964;2022-07-06T01:28:39;7.23;;;5.00;;
18176;SDS011;9213;50.858;3.964;2022-07-06T01:31:13;6.67;;;5.07;;
18176;SDS011;9213;50.858;3.964;2022-07-06T01:33:41;7.47;;;5.33;;
18176;SDS011;9213;50.858;3.964;2022-07-06T01:36:10;6.60;;;4.87;;
18176;SDS011;9213;50.858;3.964;2022-07-06T01:38:46;5.40;;;4.90;;
18176;SDS011;9213;50.858;3.964;2022-07-06T01:41:14;6.77;;;5.47;;
18176;SDS011;9213;50.858;3.964;2022-07-06T01:43:41;6.17;;;5.40;;
18176;SDS011;9213;50.858;3.964;2022-07-06T01:46:08;6.40;;;4.93;;
18176;SDS011;9213;50.858;3.964;2022-07-06T01:48:35;7.27;;;5.27;;
18176;SDS011;9213;50.858;3.964;2022-07-06T01:51:02;5.77;;;5.23;;
18176;SDS011;9213;50.858;3.964;2022-07-06T01:53:31;5.73;;;5.13;;
18176;SDS011;9213;50.858;3.964;2022-07-06T01:55:58;5.80;;;5.10;;
18176;SDS011;9213;50.858;3.964;2022-07-06T01:58:25;7.83;;;4.90;;
18176;SDS011;9213;50.858;3.964;2022-07-06T02:00:51;6.80;;;4.90;;
18176;SDS011;9213;50.858;3.964;2022-07-06T02:03:18;5.53;;;4.80;;
18176;SDS011;9213;50.858;3.964;2022-07-06T02:05:45;8.00;;;5.33;;
18176;SDS011;9213;50.858;3.964;2022-07-06T02:08:12;6.90;;;5.40;;
18176;SDS011;9213;50.858;3.964;2022-07-06T02:10:40;7.27;;;5.60;;
18176;SDS011;9213;50.858;3.964;2022-07-06T02:13:07;7.17;;;5.27;;
18176;SDS011;9213;50.858;3.964;2022-07-06T02:15:34;6.30;;;5.00;;
18176;SDS011;9213;50.858;3.964;2022-07-06T02:18:01;6.13;;;5.03;;
18176;SDS011;9213;50.858;3.964;2022-07-06T02:20:28;8.37;;;5.80;;
18176;SDS011;9213;50.858;3.964;2022-07-06T02:22:55;8.93;;;5.60;;
18176;SDS011;9213;50.858;3.964;2022-07-06T02:25:22;6.63;;;5.97;;
18176;SDS011;9213;50.858;3.964;2022-07-06T02:27:51;8.80;;;5.90;;
18176;SDS011;9213;50.858;3.964;2022-07-06T02:30:18;6.73;;;5.63;;
18176;SDS011;9213;50.858;3.964;2022-07-06T02:32:45;6.23;;;5.17;;
18176;SDS011;9213;50.858;3.964;2022-07-06T02:35:12;9.87;;;5.60;;
18176;SDS011;9213;50.858;3.964;2022-07-06T02:37:38;6.40;;;5.60;;
18176;SDS011;9213;50.858;3.964;2022-07-06T02:40:06;9.97;;;5.57;;
18176;SDS011;9213;50.858;3.964;2022-07-06T02:42:34;7.40;;;5.50;;
18176;SDS011;9213;50.858;3.964;2022-07-06T02:45:02;6.80;;;5.17;;
18176;SDS011;9213;50.858;3.964;2022-07-06T02:47:29;7.17;;;5.90;;
18176;SDS011;9213;50.858;3.964;2022-07-06T02:49:56;8.00;;;6.10;;
18176;SDS011;9213;50.858;3.964;2022-07-06T02:52:23;6.80;;;6.10;;
18176;SDS011;9213;50.858;3.964;2022-07-06T02:54:50;8.43;;;6.03;;
18176;SDS011;9213;50.858;3.964;2022-07-06T02:57:18;8.57;;;6.50;;
18176;SDS011;9213;50.858;3.964;2022-07-06T02:59:45;6.50;;;5.90;;
18176;SDS011;9213;50.858;3.964;2022-07-06T03:02:16;7.60;;;5.63;;
18176;SDS011;9213;50.858;3.964;2022-07-06T03:04:42;10.10;;;6.77;;
18176;SDS011;9213;50.858;3.964;2022-07-06T03:07:09;8.97;;;7.10;;
18176;SDS011;9213;50.858;3.964;2022-07-06T03:09:36;10.33;;;7.37;;
18176;SDS011;9213;50.858;3.964;2022-07-06T03:12:03;10.43;;;7.20;;
18176;SDS011;9213;50.858;3.964;2022-07-06T03:14:30;10.27;;;6.90;;
18176;SDS011;9213;50.858;3.964;2022-07-06T03:16:57;9.73;;;6.80;;
18176;SDS011;9213;50.858;3.964;2022-07-06T03:19:25;8.23;;;6.33;;
18176;SDS011;9213;50.858;3.964;2022-07-06T03:21:52;9.07;;;6.60;;
18176;SDS011;9213;50.858;3.964;2022-07-06T03:24:19;8.93;;;7.17;;
18176;SDS011;9213;50.858;3.964;2022-07-06T03:26:46;8.03;;;6.93;;
18176;SDS011;9213;50.858;3.964;2022-07-06T03:29:13;9.43;;;6.47;;
18176;SDS011;9213;50.858;3.964;2022-07-06T03:31:40;9.00;;;6.40;;
18176;SDS011;9213;50.858;3.964;2022-07-06T03:34:07;8.13;;;6.50;;
18176;SDS011;9213;50.858;3.964;2022-07-06T03:36:35;10.30;;;6.50;;
18176;SDS011;9213;50.858;3.964;2022-07-06T03:39:02;10.00;;;7.20;;
18176;SDS011;9213;50.858;3.964;2022-07-06T03:41:29;7.13;;;6.43;;
18176;SDS011;9213;50.858;3.964;2022-07-06T03:43:56;8.60;;;6.70;;
18176;SDS011;9213;50.858;3.964;2022-07-06T03:46:23;8.60;;;6.07;;
18176;SDS011;9213;50.858;3.964;2022-07-06T03:48:49;7.00;;;6.30;;
18176;SDS011;9213;50.858;3.964;2022-07-06T03:51:16;6.53;;;5.90;;
18176;SDS011;9213;50.858;3.964;2022-07-06T03:53:45;6.80;;;6.10;;
18176;SDS011;9213;50.858;3.964;2022-07-06T03:56:11;8.50;;;7.17;;
18176;SDS011;9213;50.858;3.964;2022-07-06T03:58:58;10.60;;;6.40;;
18176;SDS011;9213;50.858;3.964;2022-07-06T04:01:26;7.17;;;6.10;;
18176;SDS011;9213;50.858;3.964;2022-07-06T04:03:55;11.27;;;7.17;;
18176;SDS011;9213;50.858;3.964;2022-07-06T04:06:22;7.80;;;6.43;;
18176;SDS011;9213;50.858;3.964;2022-07-06T04:08:50;9.27;;;7.47;;
18176;SDS011;9213;50.858;3.964;2022-07-06T04:11:17;11.33;;;7.13;;
18176;SDS011;9213;50.858;3.964;2022-07-06T04:13:44;16.70;;;7.67;;
18176;SDS011;9213;50.858;3.964;2022-07-06T04:16:11;10.03;;;7.43;;
18176;SDS011;9213;50.858;3.964;2022-07-06T04:18:38;9.87;;;7.60;;
18176;SDS011;9213;50.858;3.964;2022-07-06T04:21:04;9.13;;;7.37;;
18176;SDS011;9213;50.858;3.964;2022-07-06T04:23:31;10.57;;;7.60;;
18176;SDS011;9213;50.858;3.964;2022-07-06T04:26:00;7.97;;;7.17;;
18176;SDS011;9213;50.858;3.964;2022-07-06T04:28:26;8.43;;;7.53;;
18176;SDS011;9213;50.858;3.964;2022-07-06T04:30:53;8.63;;;6.87;;
18176;SDS011;9213;50.858;3.964;2022-07-06T04:33:20;10.50;;;6.43;;
18176;SDS011;9213;50.858;3.964;2022-07-06T04:35:47;10.40;;;6.20;;
18176;SDS011;9213;50.858;3.964;2022-07-06T04:38:14;7.03;;;6.03;;
18176;SDS011;9213;50.858;3.964;2022-07-06T04:40:41;8.27;;;6.10;;
18176;SDS011;9213;50.858;3.964;2022-07-06T04:43:12;7.67;;;6.60;;
18176;SDS011;9213;50.858;3.964;2022-07-06T04:45:39;8.67;;;7.10;;
18176;SDS011;9213;50.858;3.964;2022-07-06T04:48:06;9.43;;;7.13;;
18176;SDS011;9213;50.858;3.964;2022-07-06T04:50:34;10.27;;;7.00;;
18176;SDS011;9213;50.858;3.964;2022-07-06T04:53:01;8.87;;;6.60;;
18176;SDS011;9213;50.858;3.964;2022-07-06T04:55:27;6.80;;;6.00;;
18176;SDS011;9213;50.858;3.964;2022-07-06T04:57:55;12.63;;;7.17;;
18176;SDS011;9213;50.858;3.964;2022-07-06T05:00:23;7.87;;;6.60;;
18176;SDS011;9213;50.858;3.964;2022-07-06T05:02:50;9.97;;;6.37;;
18176;SDS011;9213;50.858;3.964;2022-07-06T05:05:17;9.63;;;6.47;;
18176;SDS011;9213;50.858;3.964;2022-07-06T05:07:44;8.13;;;6.63;;
18176;SDS011;9213;50.858;3.964;2022-07-06T05:10:11;8.73;;;6.20;;
18176;SDS011;9213;50.858;3.964;2022-07-06T05:12:38;9.47;;;6.53;;
18176;SDS011;9213;50.858;3.964;2022-07-06T05:15:06;7.40;;;6.50;;
18176;SDS011;9213;50.858;3.964;2022-07-06T05:17:35;8.77;;;6.43;;
18176;SDS011;9213;50.858;3.964;2022-07-06T05:20:02;9.83;;;6.87;;
18176;SDS011;9213;50.858;3.964;2022-07-06T05:22:29;8.77;;;6.57;;
18176;SDS011;9213;50.858;3.964;2022-07-06T05:24:56;12.30;;;6.53;;
18176;SDS011;9213;50.858;3.964;2022-07-06T05:27:23;8.40;;;6.60;;
18176;SDS011;9213;50.858;3.964;2022-07-06T05:29:50;6.90;;;6.23;;
18176;SDS011;9213;50.858;3.964;2022-07-06T05:32:17;6.90;;;6.00;;
18176;SDS011;9213;50.858;3.964;2022-07-06T05:34:45;8.17;;;6.67;;
18176;SDS011;9213;50.858;3.964;2022-07-06T05:37:12;8.60;;;6.40;;
18176;SDS011;9213;50.858;3.964;2022-07-06T05:39:39;9.00;;;6.23;;
18176;SDS011;9213;50.858;3.964;2022-07-06T05:42:08;6.57;;;5.87;;
18176;SDS011;9213;50.858;3.964;2022-07-06T05:44:35;6.77;;;5.83;;
18176;SDS011;9213;50.858;3.964;2022-07-06T05:47:02;7.07;;;6.37;;
18176;SDS011;9213;50.858;3.964;2022-07-06T05:49:48;8.57;;;5.83;;
18176;SDS011;9213;50.858;3.964;2022-07-06T05:52:33;7.00;;;5.83;;
18176;SDS011;9213;50.858;3.964;2022-07-06T05:54:59;10.30;;;5.83;;
18176;SDS011;9213;50.858;3.964;2022-07-06T05:57:27;7.83;;;5.50;;
18176;SDS011;9213;50.858;3.964;2022-07-06T05:59:53;6.57;;;5.83;;
18176;SDS011;9213;50.858;3.964;2022-07-06T06:02:20;8.83;;;5.93;;
18176;SDS011;9213;50.858;3.964;2022-07-06T06:04:49;9.77;;;6.47;;
18176;SDS011;9213;50.858;3.964;2022-07-06T06:07:15;6.70;;;6.00;;
18176;SDS011;9213;50.858;3.964;2022-07-06T06:09:43;7.30;;;5.40;;
18176;SDS011;9213;50.858;3.964;2022-07-06T06:12:10;10.83;;;6.03;;
18176;SDS011;9213;50.858;3.964;2022-07-06T06:14:37;6.20;;;5.47;;
18176;SDS011;9213;50.858;3.964;2022-07-06T06:17:04;10.17;;;6.73;;
18176;SDS011;9213;50.858;3.964;2022-07-06T06:19:34;8.70;;;5.97;;
18176;SDS011;9213;50.858;3.964;2022-07-06T06:22:03;10.87;;;6.20;;
18176;SDS011;9213;50.858;3.964;2022-07-06T06:24:30;10.37;;;7.00;;
18176;SDS011;9213;50.858;3.964;2022-07-06T06:26:57;9.70;;;6.37;;
18176;SDS011;9213;50.858;3.964;2022-07-06T06:29:24;8.43;;;5.90;;
18176;SDS011;9213;50.858;3.964;2022-07-06T06:31:51;9.73;;;6.50;;
18176;SDS011;9213;50.858;3.964;2022-07-06T06:34:18;12.00;;;6.10;;
18176;SDS011;9213;50.858;3.964;2022-07-06T06:36:45;12.67;;;6.30;;
18176;SDS011;9213;50.858;3.964;2022-07-06T06:39:13;9.33;;;5.60;;
18176;SDS011;9213;50.858;3.964;2022-07-06T06:41:40;7.90;;;6.20;;
18176;SDS011;9213;50.858;3.964;2022-07-06T06:44:07;7.67;;;5.93;;
18176;SDS011;9213;50.858;3.964;2022-07-06T06:46:34;11.13;;;6.30;;
18176;SDS011;9213;50.858;3.964;2022-07-06T06:49:01;9.90;;;5.77;;
18176;SDS011;9213;50.858;3.964;2022-07-06T06:51:27;11.57;;;5.97;;
18176;SDS011;9213;50.858;3.964;2022-07-06T06:53:54;10.30;;;6.18;;
18176;SDS011;9213;50.858;3.964;2022-07-06T06:56:22;8.15;;;6.32;;
18176;SDS011;9213;50.858;3.964;2022-07-06T06:58:49;7.95;;;6.10;;
18176;SDS011;9213;50.858;3.964;2022-07-06T07:01:16;9.63;;;6.50;;
18176;SDS011;9213;50.858;3.964;2022-07-06T07:03:43;9.00;;;6.47;;
18176;SDS011;9213;50.858;3.964;2022-07-06T07:06:10;8.43;;;6.60;;
18176;SDS011;9213;50.858;3.964;2022-07-06T07:08:37;8.70;;;6.78;;
18176;SDS011;9213;50.858;3.964;2022-07-06T07:11:04;13.85;;;6.88;;
18176;SDS011;9213;50.858;3.964;2022-07-06T07:13:32;12.40;;;6.38;;
18176;SDS011;9213;50.858;3.964;2022-07-06T07:15:59;9.57;;;6.28;;
18176;SDS011;9213;50.858;3.964;2022-07-06T07:18:26;7.68;;;6.78;;
18176;SDS011;9213;50.858;3.964;2022-07-06T07:20:53;9.98;;;6.68;;
18176;SDS011;9213;50.858;3.964;2022-07-06T07:23:20;10.25;;;6.13;;
18176;SDS011;9213;50.858;3.964;2022-07-06T07:25:47;9.27;;;6.25;;
18176;SDS011;9213;50.858;3.964;2022-07-06T07:28:13;9.45;;;5.57;;
18176;SDS011;9213;50.858;3.964;2022-07-06T07:30:42;6.82;;;5.53;;
18176;SDS011;9213;50.858;3.964;2022-07-06T07:33:08;8.05;;;5.13;;
18176;SDS011;9213;50.858;3.964;2022-07-06T07:35:35;5.95;;;4.72;;
18176;SDS011;9213;50.858;3.964;2022-07-06T07:38:02;6.75;;;5.18;;
18176;SDS011;9213;50.858;3.964;2022-07-06T07:40:29;6.60;;;5.15;;
18176;SDS011;9213;50.858;3.964;2022-07-06T07:42:56;5.53;;;3.78;;
18176;SDS011;9213;50.858;3.964;2022-07-06T07:45:23;4.88;;;4.32;;
18176;SDS011;9213;50.858;3.964;2022-07-06T07:47:51;7.82;;;4.15;;
18176;SDS011;9213;50.858;3.964;2022-07-06T07:50:18;7.93;;;5.15;;
18176;SDS011;9213;50.858;3.964;2022-07-06T07:52:45;4.78;;;3.08;;
18176;SDS011;9213;50.858;3.964;2022-07-06T07:55:12;4.63;;;3.20;;
18176;SDS011;9213;50.858;3.964;2022-07-06T07:57:39;5.38;;;3.22;;
18176;SDS011;9213;50.858;3.964;2022-07-06T08:00:06;6.55;;;2.88;;
18176;SDS011;9213;50.858;3.964;2022-07-06T08:02:33;5.45;;;2.83;;
18176;SDS011;9213;50.858;3.964;2022-07-06T08:05:02;4.53;;;2.28;;
18176;SDS011;9213;50.858;3.964;2022-07-06T08:07:29;4.05;;;2.70;;
18176;SDS011;9213;50.858;3.964;2022-07-06T08:09:56;3.95;;;3.30;;
18176;SDS011;9213;50.858;3.964;2022-07-06T08:12:23;5.57;;;3.42;;
18176;SDS011;9213;50.858;3.964;2022-07-06T08:14:50;4.63;;;3.10;;
18176;SDS011;9213;50.858;3.964;2022-07-06T08:17:16;4.03;;;3.00;;
18176;SDS011;9213;50.858;3.964;2022-07-06T08:19:43;8.07;;;3.67;;
18176;SDS011;9213;50.858;3.964;2022-07-06T08:22:11;5.13;;;3.55;;
18176;SDS011;9213;50.858;3.964;2022-07-06T08:24:38;6.78;;;3.65;;
18176;SDS011;9213;50.858;3.964;2022-07-06T08:27:05;4.18;;;3.78;;
18176;SDS011;9213;50.858;3.964;2022-07-06T08:29:32;5.68;;;3.90;;
18176;SDS011;9213;50.858;3.964;2022-07-06T08:31:59;5.72;;;3.10;;
18176;SDS011;9213;50.858;3.964;2022-07-06T08:34:26;5.10;;;2.97;;
18176;SDS011;9213;50.858;3.964;2022-07-06T08:36:52;7.07;;;3.13;;
18176;SDS011;9213;50.858;3.964;2022-07-06T08:39:21;6.18;;;3.70;;
18176;SDS011;9213;50.858;3.964;2022-07-06T08:41:48;5.80;;;3.45;;
18176;SDS011;9213;50.858;3.964;2022-07-06T08:44:17;6.57;;;3.80;;
18176;SDS011;9213;50.858;3.964;2022-07-06T08:46:44;5.13;;;3.20;;
18176;SDS011;9213;50.858;3.964;2022-07-06T08:49:12;5.40;;;2.97;;
18176;SDS011;9213;50.858;3.964;2022-07-06T08:51:41;5.22;;;3.10;;
18176;SDS011;9213;50.858;3.964;2022-07-06T08:54:08;5.05;;;3.53;;
18176;SDS011;9213;50.858;3.964;2022-07-06T08:56:39;3.63;;;3.28;;
18176;SDS011;9213;50.858;3.964;2022-07-06T08:59:06;5.22;;;3.03;;
18176;SDS011;9213;50.858;3.964;2022-07-06T09:01:33;4.88;;;3.50;;
18176;SDS011;9213;50.858;3.964;2022-07-06T09:04:02;5.82;;;3.70;;
18176;SDS011;9213;50.858;3.964;2022-07-06T09:06:31;6.97;;;3.85;;
18176;SDS011;9213;50.858;3.964;2022-07-06T09:08:59;6.18;;;3.80;;
18176;SDS011;9213;50.858;3.964;2022-07-06T09:11:31;6.18;;;3.40;;
18176;SDS011;9213;50.858;3.964;2022-07-06T09:13:59;3.80;;;3.28;;
18176;SDS011;9213;50.858;3.964;2022-07-06T09:16:26;4.70;;;2.97;;
18176;SDS011;9213;50.858;3.964;2022-07-06T09:18:54;3.25;;;2.80;;
18176;SDS011;9213;50.858;3.964;2022-07-06T09:21:22;5.20;;;3.03;;
18176;SDS011;9213;50.858;3.964;2022-07-06T09:23:52;6.70;;;3.33;;
18176;SDS011;9213;50.858;3.964;2022-07-06T09:26:20;2.80;;;2.60;;
18176;SDS011;9213;50.858;3.964;2022-07-06T09:28:47;4.40;;;2.60;;
18176;SDS011;9213;50.858;3.964;2022-07-06T09:31:16;6.88;;;3.15;;
18176;SDS011;9213;50.858;3.964;2022-07-06T09:33:55;5.45;;;3.42;;
18176;SDS011;9213;50.858;3.964;2022-07-06T09:36:39;6.18;;;4.15;;
18176;SDS011;9213;50.858;3.964;2022-07-06T09:39:20;11.13;;;4.18;;
18176;SDS011;9213;50.858;3.964;2022-07-06T09:41:49;7.75;;;3.67;;
18176;SDS011;9213;50.858;3.964;2022-07-06T09:44:20;5.93;;;3.70;;
18176;SDS011;9213;50.858;3.964;2022-07-06T09:46:50;5.03;;;3.47;;
18176;SDS011;9213;50.858;3.964;2022-07-06T09:49:18;5.40;;;3.47;;
18176;SDS011;9213;50.858;3.964;2022-07-06T09:51:46;4.32;;;3.35;;
18176;SDS011;9213;50.858;3.964;2022-07-06T09:54:14;7.10;;;3.20;;
18176;SDS011;9213;50.858;3.964;2022-07-06T09:56:43;7.38;;;3.13;;
18176;SDS011;9213;50.858;3.964;2022-07-06T09:59:15;9.43;;;4.32;;
18176;SDS011;9213;50.858;3.964;2022-07-06T10:01:46;6.68;;;4.47;;
18176;SDS011;9213;50.858;3.964;2022-07-06T10:04:17;6.93;;;3.78;;
18176;SDS011;9213;50.858;3.964;2022-07-06T10:06:45;4.95;;;3.42;;
18176;SDS011;9213;50.858;3.964;2022-07-06T10:09:13;8.30;;;4.22;;
18176;SDS011;9213;50.858;3.964;2022-07-06T10:11:41;7.43;;;4.00;;
18176;SDS011;9213;50.858;3.964;2022-07-06T10:14:11;5.28;;;3.67;;
18176;SDS011;9213;50.858;3.964;2022-07-06T10:16:41;5.70;;;3.65;;
18176;SDS011;9213;50.858;3.964;2022-07-06T10:19:08;6.05;;;3.22;;
18176;SDS011;9213;50.858;3.964;2022-07-06T10:21:37;5.55;;;4.00;;
18176;SDS011;9213;50.858;3.964;2022-07-06T10:24:06;6.50;;;3.83;;
18176;SDS011;9213;50.858;3.964;2022-07-06T10:26:34;6.78;;;3.70;;
18176;SDS011;9213;50.858;3.964;2022-07-06T10:29:02;5.57;;;3.90;;
18176;SDS011;9213;50.858;3.964;2022-07-06T10:31:30;5.03;;;3.78;;
18176;SDS011;9213;50.858;3.964;2022-07-06T10:33:59;10.05;;;4.40;;
18176;SDS011;9213;50.858;3.964;2022-07-06T10:36:27;5.68;;;4.30;;
18176;SDS011;9213;50.858;3.964;2022-07-06T10:38:55;9.30;;;4.47;;
18176;SDS011;9213;50.858;3.964;2022-07-06T10:41:43;4.93;;;3.40;;
18176;SDS011;9213;50.858;3.964;2022-07-06T10:44:15;8.70;;;3.95;;
18176;SDS011;9213;50.858;3.964;2022-07-06T10:46:49;6.90;;;4.07;;
18176;SDS011;9213;50.858;3.964;2022-07-06T10:49:18;8.07;;;4.78;;
18176;SDS011;9213;50.858;3.964;2022-07-06T10:51:45;7.20;;;4.15;;
18176;SDS011;9213;50.858;3.964;2022-07-06T10:54:15;7.80;;;4.18;;
18176;SDS011;9213;50.858;3.964;2022-07-06T10:56:44;7.97;;;4.38;;
18176;SDS011;9213;50.858;3.964;2022-07-06T10:59:12;6.70;;;4.00;;
18176;SDS011;9213;50.858;3.964;2022-07-06T11:01:39;6.47;;;4.10;;
18176;SDS011;9213;50.858;3.964;2022-07-06T11:04:08;5.70;;;4.07;;
18176;SDS011;9213;50.858;3.964;2022-07-06T11:06:36;7.18;;;3.72;;
18176;SDS011;9213;50.858;3.964;2022-07-06T11:09:05;7.30;;;3.53;;
18176;SDS011;9213;50.858;3.964;2022-07-06T11:11:41;5.63;;;3.38;;
18176;SDS011;9213;50.858;3.964;2022-07-06T11:14:11;8.20;;;4.32;;
18176;SDS011;9213;50.858;3.964;2022-07-06T11:16:40;6.65;;;3.60;;
18176;SDS011;9213;50.858;3.964;2022-07-06T11:19:27;8.50;;;3.78;;
18176;SDS011;9213;50.858;3.964;2022-07-06T11:21:55;5.72;;;3.30;;
18176;SDS011;9213;50.858;3.964;2022-07-06T11:24:24;5.93;;;3.53;;
18176;SDS011;9213;50.858;3.964;2022-07-06T11:26:54;5.57;;;3.42;;
18176;SDS011;9213;50.858;3.964;2022-07-06T11:29:22;5.07;;;3.22;;
18176;SDS011;9213;50.858;3.964;2022-07-06T11:31:51;8.23;;;3.92;;
18176;SDS011;9213;50.858;3.964;2022-07-06T11:34:20;7.07;;;3.17;;
18176;SDS011;9213;50.858;3.964;2022-07-06T11:36:48;7.50;;;3.50;;
18176;SDS011;9213;50.858;3.964;2022-07-06T11:39:15;5.57;;;3.50;;
18176;SDS011;9213;50.858;3.964;2022-07-06T11:41:42;6.65;;;3.28;;
18176;SDS011;9213;50.858;3.964;2022-07-06T11:44:10;6.57;;;3.40;;
18176;SDS011;9213;50.858;3.964;2022-07-06T11:46:37;5.93;;;3.10;;
18176;SDS011;9213;50.858;3.964;2022-07-06T11:49:05;7.07;;;3.55;;
18176;SDS011;9213;50.858;3.964;2022-07-06T11:51:34;7.80;;;3.20;;
18176;SDS011;9213;50.858;3.964;2022-07-06T11:54:07;3.80;;;2.40;;
18176;SDS011;9213;50.858;3.964;2022-07-06T11:56:35;3.90;;;2.50;;
18176;SDS011;9213;50.858;3.964;2022-07-06T11:59:02;4.60;;;2.70;;
18176;SDS011;9213;50.858;3.964;2022-07-06T12:01:31;7.82;;;2.72;;
18176;SDS011;9213;50.858;3.964;2022-07-06T12:03:58;2.80;;;2.00;;
18176;SDS011;9213;50.858;3.964;2022-07-06T12:06:26;6.00;;;2.30;;
18176;SDS011;9213;50.858;3.964;2022-07-06T12:08:54;5.47;;;2.50;;
18176;SDS011;9213;50.858;3.964;2022-07-06T12:11:23;4.85;;;2.70;;
18176;SDS011;9213;50.858;3.964;2022-07-06T12:13:51;6.32;;;2.47;;
18176;SDS011;9213;50.858;3.964;2022-07-06T12:16:19;3.83;;;2.60;;
18176;SDS011;9213;50.858;3.964;2022-07-06T12:18:50;4.55;;;2.50;;
18176;SDS011;9213;50.858;3.964;2022-07-06T12:21:17;2.60;;;2.38;;
18176;SDS011;9213;50.858;3.964;2022-07-06T12:23:47;3.30;;;2.38;;
18176;SDS011;9213;50.858;3.964;2022-07-06T12:26:17;4.63;;;2.40;;
18176;SDS011;9213;50.858;3.964;2022-07-06T12:28:45;3.08;;;2.28;;
18176;SDS011;9213;50.858;3.964;2022-07-06T12:31:31;5.30;;;2.40;;
18176;SDS011;9213;50.858;3.964;2022-07-06T12:34:00;6.35;;;2.35;;
18176;SDS011;9213;50.858;3.964;2022-07-06T12:36:27;4.72;;;2.20;;
18176;SDS011;9213;50.858;3.964;2022-07-06T12:38:54;3.58;;;2.60;;
18176;SDS011;9213;50.858;3.964;2022-07-06T12:41:28;3.35;;;2.20;;
18176;SDS011;9213;50.858;3.964;2022-07-06T12:44:01;4.25;;;2.15;;
18176;SDS011;9213;50.858;3.964;2022-07-06T12:46:30;5.60;;;2.15;;
18176;SDS011;9213;50.858;3.964;2022-07-06T12:49:01;3.78;;;1.90;;
18176;SDS011;9213;50.858;3.964;2022-07-06T12:51:40;2.83;;;2.15;;
18176;SDS011;9213;50.858;3.964;2022-07-06T12:54:18;4.03;;;1.70;;
18176;SDS011;9213;50.858;3.964;2022-07-06T12:57:07;3.70;;;2.20;;
18176;SDS011;9213;50.858;3.964;2022-07-06T12:59:38;3.70;;;2.10;;
18176;SDS011;9213;50.858;3.964;2022-07-06T13:02:07;4.82;;;2.10;;
18176;SDS011;9213;50.858;3.964;2022-07-06T13:04:37;3.33;;;2.17;;
18176;SDS011;9213;50.858;3.964;2022-07-06T13:07:04;6.47;;;2.15;;
18176;SDS011;9213;50.858;3.964;2022-07-06T13:09:31;2.85;;;1.95;;
18176;SDS011;9213;50.858;3.964;2022-07-06T13:11:58;4.82;;;2.15;;
18176;SDS011;9213;50.858;3.964;2022-07-06T13:14:25;3.83;;;1.77;;
18176;SDS011;9213;50.858;3.964;2022-07-06T13:16:52;3.53;;;1.77;;
18176;SDS011;9213;50.858;3.964;2022-07-06T13:19:20;2.40;;;1.88;;
18176;SDS011;9213;50.858;3.964;2022-07-06T13:21:48;4.97;;;1.98;;
18176;SDS011;9213;50.858;3.964;2022-07-06T13:24:15;3.58;;;1.92;;
18176;SDS011;9213;50.858;3.964;2022-07-06T13:26:42;2.22;;;1.92;;
18176;SDS011;9213;50.858;3.964;2022-07-06T13:29:09;3.70;;;2.10;;
18176;SDS011;9213;50.858;3.964;2022-07-06T13:31:36;6.05;;;2.10;;
18176;SDS011;9213;50.858;3.964;2022-07-06T13:34:04;2.95;;;1.95;;
18176;SDS011;9213;50.858;3.964;2022-07-06T13:36:32;3.20;;;1.50;;
18176;SDS011;9213;50.858;3.964;2022-07-06T13:39:00;2.22;;;1.83;;
18176;SDS011;9213;50.858;3.964;2022-07-06T13:41:28;4.72;;;2.30;;
18176;SDS011;9213;50.858;3.964;2022-07-06T13:43:55;3.88;;;1.92;;
18176;SDS011;9213;50.858;3.964;2022-07-06T13:46:22;5.05;;;2.00;;
18176;SDS011;9213;50.858;3.964;2022-07-06T13:48:50;4.80;;;2.15;;
18176;SDS011;9213;50.858;3.964;2022-07-06T13:51:17;4.40;;;2.05;;
18176;SDS011;9213;50.858;3.964;2022-07-06T13:53:44;4.85;;;2.28;;
18176;SDS011;9213;50.858;3.964;2022-07-06T13:56:12;5.05;;;2.00;;
18176;SDS011;9213;50.858;3.964;2022-07-06T13:58:39;3.65;;;2.30;;
18176;SDS011;9213;50.858;3.964;2022-07-06T14:01:06;3.60;;;2.20;;
18176;SDS011;9213;50.858;3.964;2022-07-06T14:03:33;2.90;;;2.05;;
18176;SDS011;9213;50.858;3.964;2022-07-06T14:06:02;3.92;;;2.13;;
18176;SDS011;9213;50.858;3.964;2022-07-06T14:08:31;3.40;;;2.00;;
18176;SDS011;9213;50.858;3.964;2022-07-06T14:10:58;3.67;;;2.10;;
18176;SDS011;9213;50.858;3.964;2022-07-06T14:13:26;3.83;;;2.15;;
18176;SDS011;9213;50.858;3.964;2022-07-06T14:15:53;4.20;;;2.13;;
18176;SDS011;9213;50.858;3.964;2022-07-06T14:18:20;2.70;;;1.90;;
18176;SDS011;9213;50.858;3.964;2022-07-06T14:20:49;4.88;;;2.00;;
18176;SDS011;9213;50.858;3.964;2022-07-06T14:23:17;2.63;;;2.35;;
18176;SDS011;9213;50.858;3.964;2022-07-06T14:25:45;2.58;;;2.00;;
18176;SDS011;9213;50.858;3.964;2022-07-06T14:28:12;4.95;;;2.30;;
18176;SDS011;9213;50.858;3.964;2022-07-06T14:30:41;5.05;;;2.38;;
18176;SDS011;9213;50.858;3.964;2022-07-06T14:33:09;4.18;;;2.25;;
18176;SDS011;9213;50.858;3.964;2022-07-06T14:35:38;5.80;;;2.35;;
18176;SDS011;9213;50.858;3.964;2022-07-06T14:38:06;4.00;;;1.98;;
18176;SDS011;9213;50.858;3.964;2022-07-06T14:40:33;5.55;;;2.30;;
18176;SDS011;9213;50.858;3.964;2022-07-06T14:43:01;7.40;;;2.38;;
18176;SDS011;9213;50.858;3.964;2022-07-06T14:45:29;3.35;;;2.47;;
18176;SDS011;9213;50.858;3.964;2022-07-06T14:47:58;3.55;;;2.50;;
18176;SDS011;9213;50.858;3.964;2022-07-06T14:50:25;5.20;;;2.65;;
18176;SDS011;9213;50.858;3.964;2022-07-06T14:52:52;5.00;;;2.63;;
18176;SDS011;9213;50.858;3.964;2022-07-06T14:55:20;6.72;;;2.40;;
18176;SDS011;9213;50.858;3.964;2022-07-06T14:57:47;2.90;;;2.60;;
18176;SDS011;9213;50.858;3.964;2022-07-06T15:00:15;3.40;;;2.42;;
18176;SDS011;9213;50.858;3.964;2022-07-06T15:02:42;3.88;;;2.80;;
18176;SDS011;9213;50.858;3.964;2022-07-06T15:05:10;11.82;;;3.30;;
18176;SDS011;9213;50.858;3.964;2022-07-06T15:07:38;4.53;;;2.70;;